createdAt,value
2015-05-05T00:00:17.905Z,0
2015-05-05T00:00:36.530Z,0
2015-05-05T00:00:55.189Z,0
2015-05-05T00:01:13.782Z,0
2015-05-05T00:01:32.470Z,0
2015-05-05T00:01:51.066Z,0
2015-05-05T00:02:09.769Z,0
2015-05-05T00:02:28.378Z,0
2015-05-05T00:02:47.378Z,0
2015-05-05T00:03:06.006Z,0
2015-05-05T00:03:24.490Z,0
2015-05-05T00:03:43.225Z,0
2015-05-05T00:04:01.867Z,0
2015-05-05T00:04:20.305Z,0
2015-05-05T00:04:39.117Z,0
2015-05-05T00:04:57.994Z,0
2015-05-05T00:05:16.401Z,0
2015-05-05T00:05:34.885Z,0
2015-05-05T00:05:53.541Z,0
2015-05-05T00:06:11.700Z,0
2015-05-05T00:06:30.106Z,0
2015-05-05T00:06:48.621Z,0
2015-05-05T00:07:07.139Z,0
2015-05-05T00:07:25.686Z,0
2015-05-05T00:07:44.233Z,0
2015-05-05T00:08:02.751Z,0
2015-05-05T00:08:21.486Z,0
2015-05-05T00:08:40.236Z,0
2015-05-05T00:08:58.738Z,0
2015-05-05T00:09:17.300Z,0
2015-05-05T00:09:35.847Z,0
2015-05-05T00:09:54.472Z,0
2015-05-05T00:10:13.038Z,0
2015-05-05T00:10:31.725Z,0
2015-05-05T00:10:50.413Z,0
2015-05-05T00:11:09.243Z,0
2015-05-05T00:11:28.008Z,0
2015-05-05T00:11:46.649Z,0
2015-05-05T00:12:05.090Z,0
2015-05-05T00:12:23.527Z,0
2015-05-05T00:12:41.980Z,0
2015-05-05T00:13:00.418Z,0
2015-05-05T00:13:18.826Z,0
2015-05-05T00:13:37.560Z,0
2015-05-05T00:13:56.029Z,0
2015-05-05T00:14:14.672Z,0
2015-05-05T00:14:33.219Z,0
2015-05-05T00:14:51.750Z,0
2015-05-05T00:15:10.221Z,0
2015-05-05T00:15:28.627Z,0
2015-05-05T00:15:47.049Z,0
2015-05-05T00:16:05.752Z,0
2015-05-05T00:16:24.145Z,0
2015-05-05T00:16:42.599Z,0
2015-05-05T00:17:01.067Z,0
2015-05-05T00:17:19.679Z,0
2015-05-05T00:17:38.257Z,0
2015-05-05T00:17:56.944Z,0
2015-05-05T00:18:15.400Z,0
2015-05-05T00:18:33.822Z,0
2015-05-05T00:18:52.260Z,0
2015-05-05T00:19:10.760Z,0
2015-05-05T00:19:29.263Z,0
2015-05-05T00:19:47.857Z,0
2015-05-05T00:20:06.232Z,0
2015-05-05T00:20:25.077Z,0
2015-05-05T00:20:43.546Z,0
2015-05-05T00:21:02.124Z,0
2015-05-05T00:21:20.671Z,0
2015-05-05T00:21:39.501Z,0
2015-05-05T00:21:58.157Z,0
2015-05-05T00:22:16.829Z,0
2015-05-05T00:22:35.379Z,0
2015-05-05T00:22:53.801Z,0
2015-05-05T00:23:12.442Z,0
2015-05-05T00:23:31.037Z,0
2015-05-05T00:23:49.662Z,0
2015-05-05T00:24:08.397Z,0
2015-05-05T00:24:26.897Z,0
2015-05-05T00:24:45.321Z,0
2015-05-05T00:25:03.805Z,0
2015-05-05T00:25:22.383Z,0
2015-05-05T00:25:41.214Z,0
2015-05-05T00:26:00.027Z,0
2015-05-05T00:26:18.480Z,0
2015-05-05T00:26:37.186Z,0
2015-05-05T00:26:55.795Z,0
2015-05-05T00:27:14.545Z,0
2015-05-05T00:27:32.936Z,0
2015-05-05T00:27:51.531Z,0
2015-05-05T00:28:10.203Z,0
2015-05-05T00:28:28.750Z,0
2015-05-05T00:28:47.424Z,0
2015-05-05T00:29:05.643Z,0
2015-05-05T00:29:24.237Z,0
2015-05-05T00:29:43.036Z,0
2015-05-05T00:30:01.458Z,0
2015-05-05T00:30:20.067Z,0
2015-05-05T00:30:38.817Z,0
2015-05-05T00:30:57.475Z,0
2015-05-05T00:31:15.991Z,0
2015-05-05T00:31:34.569Z,0
2015-05-05T00:31:53.103Z,0
2015-05-05T00:32:11.588Z,0
2015-05-05T00:32:30.041Z,0
2015-05-05T00:32:48.824Z,0
2015-05-05T00:33:07.433Z,0
2015-05-05T00:33:25.933Z,0
2015-05-05T00:33:44.515Z,0
2015-05-05T00:34:03.358Z,0
2015-05-05T00:34:21.843Z,0
2015-05-05T00:34:40.343Z,0
2015-05-05T00:34:58.735Z,0
2015-05-05T00:35:17.251Z,0
2015-05-05T00:35:36.048Z,0
2015-05-05T00:35:54.878Z,0
2015-05-05T00:36:13.519Z,0
2015-05-05T00:36:32.034Z,0
2015-05-05T00:36:49.849Z,0
2015-05-05T00:37:08.521Z,0
2015-05-05T00:37:26.974Z,0
2015-05-05T00:37:45.474Z,0
2015-05-05T00:38:03.867Z,0
2015-05-05T00:38:22.633Z,0
2015-05-05T00:38:41.289Z,0
2015-05-05T00:38:59.822Z,0
2015-05-05T00:39:18.463Z,0
2015-05-05T00:39:36.729Z,0
2015-05-05T00:39:55.166Z,0
2015-05-05T00:40:13.607Z,0
2015-05-05T00:40:32.075Z,0
2015-05-05T00:40:50.763Z,0
2015-05-05T00:41:09.687Z,0
2015-05-05T00:41:28.374Z,0
2015-05-05T00:41:47.202Z,0
2015-05-05T00:42:05.596Z,0
2015-05-05T00:42:24.237Z,0
2015-05-05T00:42:42.643Z,0
2015-05-05T00:43:01.143Z,0
2015-05-05T00:43:19.614Z,0
2015-05-05T00:43:37.989Z,0
2015-05-05T00:43:56.379Z,0
2015-05-05T00:44:14.913Z,0
2015-05-05T00:44:33.522Z,0
2015-05-05T00:44:51.944Z,0
2015-05-05T00:45:10.665Z,0
2015-05-05T00:45:29.290Z,0
2015-05-05T00:45:48.040Z,0
2015-05-05T00:46:06.665Z,0
2015-05-05T00:46:25.261Z,0
2015-05-05T00:46:43.839Z,0
2015-05-05T00:47:01.855Z,0
2015-05-05T00:47:20.451Z,0
2015-05-05T00:47:39.013Z,0
2015-05-05T00:47:57.513Z,0
2015-05-05T00:48:16.048Z,0
2015-05-05T00:48:34.532Z,0
2015-05-05T00:48:53.313Z,0
2015-05-05T00:49:11.798Z,0
2015-05-05T00:49:30.550Z,0
2015-05-05T00:49:49.050Z,0
2015-05-05T00:50:07.487Z,0
2015-05-05T00:50:26.037Z,0
2015-05-05T00:50:44.631Z,0
2015-05-05T00:51:03.209Z,0
2015-05-05T00:51:22.007Z,0
2015-05-05T00:51:40.663Z,0
2015-05-05T00:51:59.413Z,0
2015-05-05T00:52:17.838Z,0
2015-05-05T00:52:36.432Z,0
2015-05-05T00:52:55.291Z,0
2015-05-05T00:53:13.775Z,0
2015-05-05T00:53:32.465Z,0
2015-05-05T00:53:50.934Z,0
2015-05-05T00:54:09.699Z,0
2015-05-05T00:54:28.515Z,0
2015-05-05T00:54:47.140Z,0
2015-05-05T00:55:05.733Z,0
2015-05-05T00:55:24.564Z,0
2015-05-05T00:55:43.407Z,0
2015-05-05T00:56:02.064Z,0
2015-05-05T00:56:20.503Z,0
2015-05-05T00:56:39.050Z,0
2015-05-05T00:56:57.628Z,0
2015-05-05T00:57:16.206Z,0
2015-05-05T00:57:34.678Z,0
2015-05-05T00:57:53.256Z,0
2015-05-05T00:58:12.006Z,0
2015-05-05T00:58:30.508Z,0
2015-05-05T00:58:49.055Z,0
2015-05-05T00:59:06.821Z,0
2015-05-05T00:59:25.399Z,0
2015-05-05T00:59:43.792Z,0
2015-05-05T01:00:02.183Z,0
2015-05-05T01:00:20.574Z,0
2015-05-05T01:00:39.169Z,0
2015-05-05T01:00:57.716Z,0
2015-05-05T01:01:16.247Z,0
2015-05-05T01:01:34.763Z,0
2015-05-05T01:01:53.485Z,0
2015-05-05T01:02:11.969Z,0
2015-05-05T01:02:30.422Z,0
2015-05-05T01:02:49.002Z,0
2015-05-05T01:03:07.393Z,0
2015-05-05T01:03:25.862Z,0
2015-05-05T01:03:44.518Z,0
2015-05-05T01:04:02.896Z,0
2015-05-05T01:04:21.396Z,0
2015-05-05T01:04:40.146Z,0
2015-05-05T01:04:58.727Z,0
2015-05-05T01:05:17.165Z,0
2015-05-05T01:05:35.696Z,0
2015-05-05T01:05:54.120Z,0
2015-05-05T01:06:12.510Z,0
2015-05-05T01:06:30.979Z,0
2015-05-05T01:06:49.370Z,0
2015-05-05T01:07:07.762Z,0
2015-05-05T01:07:26.231Z,0
2015-05-05T01:07:44.856Z,0
2015-05-05T01:08:03.249Z,0
2015-05-05T01:08:21.733Z,0
2015-05-05T01:08:40.186Z,0
2015-05-05T01:08:58.986Z,0
2015-05-05T01:09:17.689Z,0
2015-05-05T01:09:36.080Z,0
2015-05-05T01:09:54.611Z,0
2015-05-05T01:10:13.098Z,0
2015-05-05T01:10:31.910Z,0
2015-05-05T01:10:50.441Z,0
2015-05-05T01:11:09.147Z,0
2015-05-05T01:11:27.694Z,0
2015-05-05T01:11:46.382Z,0
2015-05-05T01:12:05.259Z,0
2015-05-05T01:12:23.962Z,0
2015-05-05T01:12:42.384Z,0
2015-05-05T01:13:00.962Z,0
2015-05-05T01:13:19.356Z,0
2015-05-05T01:13:38.121Z,0
2015-05-05T01:13:56.621Z,0
2015-05-05T01:14:15.123Z,0
2015-05-05T01:14:33.592Z,0
2015-05-05T01:14:52.170Z,0
2015-05-05T01:15:10.951Z,0
2015-05-05T01:15:29.375Z,0
2015-05-05T01:15:47.953Z,0
2015-05-05T01:16:06.469Z,0
2015-05-05T01:16:24.956Z,0
2015-05-05T01:16:43.503Z,0
2015-05-05T01:17:02.284Z,0
2015-05-05T01:17:20.831Z,0
2015-05-05T01:17:39.286Z,0
2015-05-05T01:17:57.943Z,0
2015-05-05T01:18:16.536Z,0
2015-05-05T01:18:35.196Z,0
2015-05-05T01:18:53.727Z,0
2015-05-05T01:19:12.414Z,0
2015-05-05T01:19:30.946Z,0
2015-05-05T01:19:49.713Z,0
2015-05-05T01:20:08.151Z,0
2015-05-05T01:20:26.791Z,0
2015-05-05T01:20:45.388Z,0
2015-05-05T01:21:03.888Z,0
2015-05-05T01:21:22.373Z,0
2015-05-05T01:21:40.857Z,0
2015-05-05T01:21:59.328Z,0
2015-05-05T01:22:17.796Z,0
2015-05-05T01:22:36.453Z,0
2015-05-05T01:22:55.065Z,0
2015-05-05T01:23:13.706Z,0
2015-05-05T01:23:32.299Z,0
2015-05-05T01:23:51.003Z,0
2015-05-05T01:24:09.598Z,0
2015-05-05T01:24:28.098Z,0
2015-05-05T01:24:46.911Z,0
2015-05-05T01:25:05.445Z,0
2015-05-05T01:25:24.008Z,0
2015-05-05T01:25:42.570Z,0
2015-05-05T01:26:01.164Z,0
2015-05-05T01:26:19.588Z,0
2015-05-05T01:26:38.369Z,0
2015-05-05T01:26:56.963Z,0
2015-05-05T01:27:15.575Z,0
2015-05-05T01:27:34.247Z,0
2015-05-05T01:27:52.716Z,0
2015-05-05T01:28:11.091Z,0
2015-05-05T01:28:29.594Z,0
2015-05-05T01:28:48.031Z,0
2015-05-05T01:29:06.547Z,0
2015-05-05T01:29:25.267Z,0
2015-05-05T01:29:43.673Z,0
2015-05-05T01:30:02.438Z,0
2015-05-05T01:30:21.142Z,0
2015-05-05T01:30:39.816Z,0
2015-05-05T01:30:58.488Z,0
2015-05-05T01:31:17.160Z,0
2015-05-05T01:31:35.741Z,0
2015-05-05T01:31:54.210Z,0
2015-05-05T01:32:12.960Z,0
2015-05-05T01:32:31.741Z,0
2015-05-05T01:32:50.243Z,0
2015-05-05T01:33:08.681Z,0
2015-05-05T01:33:27.275Z,0
2015-05-05T01:33:45.824Z,0
2015-05-05T01:34:04.340Z,0
2015-05-05T01:34:23.074Z,0
2015-05-05T01:34:41.621Z,0
2015-05-05T01:35:00.218Z,0
2015-05-05T01:35:19.093Z,0
2015-05-05T01:35:37.749Z,0
2015-05-05T01:35:56.438Z,0
2015-05-05T01:36:14.922Z,0
2015-05-05T01:36:33.266Z,0
2015-05-05T01:36:52.063Z,0
2015-05-05T01:37:10.536Z,0
2015-05-05T01:37:29.051Z,0
2015-05-05T01:37:47.645Z,0
2015-05-05T01:38:06.342Z,0
2015-05-05T01:38:25.108Z,0
2015-05-05T01:38:43.780Z,0
2015-05-05T01:39:02.467Z,0
2015-05-05T01:39:20.872Z,0
2015-05-05T01:39:39.372Z,0
2015-05-05T01:39:57.966Z,0
2015-05-05T01:40:16.604Z,0
2015-05-05T01:40:35.323Z,0
2015-05-05T01:40:53.744Z,0
2015-05-05T01:41:12.244Z,0
2015-05-05T01:41:30.665Z,0
2015-05-05T01:41:49.118Z,0
2015-05-05T01:42:07.743Z,0
2015-05-05T01:42:26.334Z,0
2015-05-05T01:42:44.787Z,0
2015-05-05T01:43:03.084Z,0
2015-05-05T01:43:21.600Z,0
2015-05-05T01:43:40.199Z,0
2015-05-05T01:43:58.637Z,0
2015-05-05T01:44:17.027Z,0
2015-05-05T01:44:35.519Z,0
2015-05-05T01:44:54.159Z,0
2015-05-05T01:45:12.909Z,0
2015-05-05T01:45:31.363Z,0
2015-05-05T01:45:50.024Z,0
2015-05-05T01:46:08.555Z,0
2015-05-05T01:46:26.946Z,0
2015-05-05T01:46:45.609Z,0
2015-05-05T01:47:04.125Z,0
2015-05-05T01:47:22.546Z,0
2015-05-05T01:47:41.000Z,0
2015-05-05T01:47:59.614Z,0
2015-05-05T01:48:18.208Z,0
2015-05-05T01:48:36.676Z,0
2015-05-05T01:48:55.429Z,0
2015-05-05T01:49:13.883Z,0
2015-05-05T01:49:32.539Z,0
2015-05-05T01:49:51.148Z,0
2015-05-05T01:50:09.746Z,0
2015-05-05T01:50:28.152Z,0
2015-05-05T01:50:46.527Z,0
2015-05-05T01:51:05.078Z,0
2015-05-05T01:51:24.016Z,0
2015-05-05T01:51:42.453Z,0
2015-05-05T01:52:01.125Z,0
2015-05-05T01:52:19.941Z,0
2015-05-05T01:52:38.504Z,0
2015-05-05T01:52:56.879Z,0
2015-05-05T01:53:15.585Z,0
2015-05-05T01:53:34.163Z,0
2015-05-05T01:53:52.741Z,0
2015-05-05T01:54:11.210Z,0
2015-05-05T01:54:29.697Z,0
2015-05-05T01:54:48.479Z,0
2015-05-05T01:55:07.197Z,0
2015-05-05T01:55:25.905Z,0
2015-05-05T01:55:44.498Z,0
2015-05-05T01:56:02.889Z,0
2015-05-05T01:56:21.295Z,0
2015-05-05T01:56:39.751Z,0
2015-05-05T01:56:58.548Z,0
2015-05-05T01:57:17.001Z,0
2015-05-05T01:57:35.395Z,0
2015-05-05T01:57:54.192Z,0
2015-05-05T01:58:12.770Z,0
2015-05-05T01:58:31.379Z,0
2015-05-05T01:58:49.835Z,0
2015-05-05T01:59:08.429Z,0
2015-05-05T01:59:26.929Z,0
2015-05-05T01:59:45.494Z,0
2015-05-05T02:00:04.072Z,0
2015-05-05T02:00:22.462Z,0
2015-05-05T02:00:41.025Z,0
2015-05-05T02:00:59.419Z,0
2015-05-05T02:01:18.090Z,0
2015-05-05T02:01:36.840Z,0
2015-05-05T02:01:55.436Z,0
2015-05-05T02:02:13.983Z,0
2015-05-05T02:02:32.530Z,0
2015-05-05T02:02:50.921Z,0
2015-05-05T02:03:09.549Z,0
2015-05-05T02:03:28.064Z,0
2015-05-05T02:03:46.455Z,0
2015-05-05T02:04:04.863Z,0
2015-05-05T02:04:23.332Z,0
2015-05-05T02:04:41.738Z,0
2015-05-05T02:05:00.222Z,0
2015-05-05T02:05:18.788Z,0
2015-05-05T02:05:37.444Z,0
2015-05-05T02:05:56.194Z,0
2015-05-05T02:06:14.602Z,0
2015-05-05T02:06:33.212Z,0
2015-05-05T02:06:51.790Z,0
2015-05-05T02:07:10.352Z,0
2015-05-05T02:07:28.761Z,0
2015-05-05T02:07:47.464Z,0
2015-05-05T02:08:05.948Z,0
2015-05-05T02:08:24.482Z,0
2015-05-05T02:08:42.873Z,0
2015-05-05T02:09:01.279Z,0
2015-05-05T02:09:19.732Z,0
2015-05-05T02:09:38.297Z,0
2015-05-05T02:09:56.828Z,0
2015-05-05T02:10:15.219Z,0
2015-05-05T02:10:33.691Z,0
2015-05-05T02:10:52.347Z,0
2015-05-05T02:11:10.737Z,0
2015-05-05T02:11:29.347Z,0
2015-05-05T02:11:47.819Z,0
2015-05-05T02:12:06.459Z,0
2015-05-05T02:12:25.069Z,0
2015-05-05T02:12:43.914Z,0
2015-05-05T02:13:02.680Z,0
2015-05-05T02:13:21.071Z,0
2015-05-05T02:13:39.446Z,0
2015-05-05T02:13:58.183Z,0
2015-05-05T02:14:16.605Z,0
2015-05-05T02:14:35.167Z,0
2015-05-05T02:14:53.966Z,0
2015-05-05T02:15:12.669Z,0
2015-05-05T02:15:31.201Z,0
2015-05-05T02:15:49.828Z,0
2015-05-05T02:16:08.281Z,0
2015-05-05T02:16:26.765Z,0
2015-05-05T02:16:45.203Z,0
2015-05-05T02:17:03.643Z,0
2015-05-05T02:17:22.034Z,0
2015-05-05T02:17:40.409Z,0
2015-05-05T02:17:59.036Z,0
2015-05-05T02:18:17.442Z,0
2015-05-05T02:18:36.051Z,0
2015-05-05T02:18:54.520Z,0
2015-05-05T02:19:12.945Z,0
2015-05-05T02:19:31.414Z,0
2015-05-05T02:19:49.961Z,0
2015-05-05T02:20:08.354Z,0
2015-05-05T02:20:26.745Z,0
2015-05-05T02:20:45.323Z,0
2015-05-05T02:21:03.885Z,0
2015-05-05T02:21:22.387Z,0
2015-05-05T02:21:40.903Z,0
2015-05-05T02:21:59.341Z,0
2015-05-05T02:22:17.796Z,0
2015-05-05T02:22:36.452Z,0
2015-05-05T02:22:54.936Z,0
2015-05-05T02:23:13.405Z,0
2015-05-05T02:23:32.064Z,0
2015-05-05T02:23:50.517Z,0
2015-05-05T02:24:09.002Z,0
2015-05-05T02:24:27.802Z,0
2015-05-05T02:24:46.192Z,0
2015-05-05T02:25:04.911Z,0
2015-05-05T02:25:23.520Z,0
2015-05-05T02:25:42.069Z,0
2015-05-05T02:26:00.554Z,0
2015-05-05T02:26:19.241Z,0
2015-05-05T02:26:37.744Z,0
2015-05-05T02:26:56.182Z,0
2015-05-05T02:27:14.572Z,0
2015-05-05T02:27:33.010Z,0
2015-05-05T02:27:51.793Z,0
2015-05-05T02:28:10.387Z,0
2015-05-05T02:28:28.762Z,0
2015-05-05T02:28:47.201Z,0
2015-05-05T02:29:05.592Z,0
2015-05-05T02:29:24.186Z,0
2015-05-05T02:29:42.686Z,0
2015-05-05T02:30:01.251Z,0
2015-05-05T02:30:19.642Z,0
2015-05-05T02:30:38.251Z,0
2015-05-05T02:30:56.659Z,0
2015-05-05T02:31:15.159Z,0
2015-05-05T02:31:33.659Z,0
2015-05-05T02:31:52.144Z,0
2015-05-05T02:32:10.600Z,0
2015-05-05T02:32:29.131Z,0
2015-05-05T02:32:47.647Z,0
2015-05-05T02:33:06.322Z,0
2015-05-05T02:33:24.728Z,0
2015-05-05T02:33:43.103Z,0
2015-05-05T02:34:01.494Z,0
2015-05-05T02:34:19.886Z,0
2015-05-05T02:34:38.511Z,0
2015-05-05T02:34:57.105Z,0
2015-05-05T02:35:15.498Z,0
2015-05-05T02:35:34.076Z,0
2015-05-05T02:35:52.529Z,0
2015-05-05T02:36:11.248Z,0
2015-05-05T02:36:29.688Z,0
2015-05-05T02:36:48.438Z,0
2015-05-05T02:37:07.001Z,0
2015-05-05T02:37:25.394Z,0
2015-05-05T02:37:44.129Z,0
2015-05-05T02:38:02.629Z,0
2015-05-05T02:38:21.269Z,0
2015-05-05T02:38:39.958Z,0
2015-05-05T02:38:58.426Z,0
2015-05-05T02:39:17.036Z,0
2015-05-05T02:39:35.461Z,0
2015-05-05T02:39:54.179Z,0
2015-05-05T02:40:12.836Z,0
2015-05-05T02:40:31.367Z,0
2015-05-05T02:40:50.026Z,0
2015-05-05T02:41:08.495Z,0
2015-05-05T02:41:26.901Z,0
2015-05-05T02:41:45.654Z,0
2015-05-05T02:42:04.342Z,0
2015-05-05T02:42:23.076Z,0
2015-05-05T02:42:41.514Z,0
2015-05-05T02:42:59.906Z,0
2015-05-05T02:43:18.391Z,0
2015-05-05T02:43:36.812Z,0
2015-05-05T02:43:55.518Z,0
2015-05-05T02:44:14.299Z,0
2015-05-05T02:44:32.924Z,0
2015-05-05T02:44:51.549Z,0
2015-05-05T02:45:10.191Z,0
2015-05-05T02:45:28.738Z,0
2015-05-05T02:45:47.363Z,0
2015-05-05T02:46:05.882Z,0
2015-05-05T02:46:24.507Z,0
2015-05-05T02:46:43.085Z,0
2015-05-05T02:47:01.913Z,0
2015-05-05T02:47:20.526Z,0
2015-05-05T02:47:39.182Z,0
2015-05-05T02:47:58.197Z,0
2015-05-05T02:48:16.622Z,0
2015-05-05T02:48:35.013Z,0
2015-05-05T02:48:53.607Z,0
2015-05-05T02:49:12.013Z,0
2015-05-05T02:49:30.437Z,0
2015-05-05T02:49:48.843Z,0
2015-05-05T02:50:07.656Z,0
2015-05-05T02:50:26.392Z,0
2015-05-05T02:50:44.236Z,0
2015-05-05T02:51:02.720Z,0
2015-05-05T02:51:21.283Z,0
2015-05-05T02:51:39.895Z,0
2015-05-05T02:51:58.692Z,0
2015-05-05T02:52:17.129Z,0
2015-05-05T02:52:35.647Z,0
2015-05-05T02:52:54.241Z,0
2015-05-05T02:53:12.991Z,0
2015-05-05T02:53:31.553Z,0
2015-05-05T02:53:50.071Z,0
2015-05-05T02:54:08.586Z,0
2015-05-05T02:54:27.211Z,0
2015-05-05T02:54:45.855Z,0
2015-05-05T02:55:04.355Z,0
2015-05-05T02:55:22.761Z,0
2015-05-05T02:55:40.652Z,0
2015-05-05T02:55:59.076Z,0
2015-05-05T02:56:17.591Z,0
2015-05-05T02:56:36.341Z,0
2015-05-05T02:56:54.954Z,0
2015-05-05T02:57:13.532Z,0
2015-05-05T02:57:31.438Z,0
2015-05-05T02:57:49.891Z,0
2015-05-05T02:58:08.441Z,0
2015-05-05T02:58:26.941Z,0
2015-05-05T02:58:45.347Z,0
2015-05-05T02:59:03.959Z,0
2015-05-05T02:59:22.459Z,0
2015-05-05T02:59:40.959Z,0
2015-05-05T02:59:59.334Z,0
2015-05-05T03:00:17.743Z,0
2015-05-05T03:00:36.462Z,0
2015-05-05T03:00:54.915Z,0
2015-05-05T03:01:13.573Z,0
2015-05-05T03:01:31.979Z,0
2015-05-05T03:01:50.651Z,0
2015-05-05T03:02:09.151Z,0
2015-05-05T03:02:27.591Z,0
2015-05-05T03:02:45.997Z,0
2015-05-05T03:03:04.575Z,0
2015-05-05T03:03:23.063Z,0
2015-05-05T03:03:41.469Z,0
2015-05-05T03:04:00.031Z,0
2015-05-05T03:04:18.625Z,0
2015-05-05T03:04:37.300Z,0
2015-05-05T03:04:55.894Z,0
2015-05-05T03:05:14.675Z,0
2015-05-05T03:05:33.083Z,0
2015-05-05T03:05:51.552Z,0
2015-05-05T03:06:10.068Z,0
2015-05-05T03:06:28.521Z,0
2015-05-05T03:06:47.149Z,0
2015-05-05T03:07:05.758Z,0
2015-05-05T03:07:23.664Z,0
2015-05-05T03:07:42.073Z,0
2015-05-05T03:08:00.588Z,0
2015-05-05T03:08:19.260Z,1
2015-05-05T03:08:37.682Z,1
2015-05-05T03:08:56.434Z,1
2015-05-05T03:09:14.840Z,1
2015-05-05T03:09:33.496Z,1
2015-05-05T03:09:51.936Z,2
2015-05-05T03:10:10.373Z,2
2015-05-05T03:10:28.858Z,2
2015-05-05T03:10:47.545Z,2
2015-05-05T03:11:06.237Z,2
2015-05-05T03:11:24.877Z,2
2015-05-05T03:11:43.471Z,3
2015-05-05T03:12:01.926Z,3
2015-05-05T03:12:20.426Z,3
2015-05-05T03:12:39.208Z,4
2015-05-05T03:12:57.786Z,4
2015-05-05T03:13:16.414Z,4
2015-05-05T03:13:35.195Z,5
2015-05-05T03:13:53.711Z,5
2015-05-05T03:14:12.166Z,6
2015-05-05T03:14:30.931Z,6
2015-05-05T03:14:49.416Z,6
2015-05-05T03:15:07.978Z,7
2015-05-05T03:15:26.668Z,7
2015-05-05T03:15:45.308Z,8
2015-05-05T03:16:03.808Z,9
2015-05-05T03:16:22.217Z,9
2015-05-05T03:16:40.623Z,10
2015-05-05T03:16:59.232Z,11
2015-05-05T03:17:17.904Z,11
2015-05-05T03:17:36.454Z,12
2015-05-05T03:17:55.048Z,13
2015-05-05T03:18:13.485Z,14
2015-05-05T03:18:31.894Z,15
2015-05-05T03:18:50.285Z,15
2015-05-05T03:19:08.879Z,16
2015-05-05T03:19:27.254Z,17
2015-05-05T03:19:45.741Z,18
2015-05-05T03:20:04.476Z,19
2015-05-05T03:20:22.913Z,20
2015-05-05T03:20:41.524Z,21
2015-05-05T03:21:00.243Z,22
2015-05-05T03:21:18.649Z,23
2015-05-05T03:21:37.462Z,24
2015-05-05T03:21:56.043Z,25
2015-05-05T03:22:14.637Z,26
2015-05-05T03:22:33.324Z,27
2015-05-05T03:22:51.842Z,29
2015-05-05T03:23:10.389Z,30
2015-05-05T03:23:29.045Z,31
2015-05-05T03:23:47.639Z,33
2015-05-05T03:24:06.345Z,34
2015-05-05T03:24:24.814Z,35
2015-05-05T03:24:43.251Z,37
2015-05-05T03:25:01.675Z,38
2015-05-05T03:25:19.925Z,40
2015-05-05T03:25:38.409Z,42
2015-05-05T03:25:56.831Z,44
2015-05-05T03:26:15.318Z,46
2015-05-05T03:26:33.833Z,48
2015-05-05T03:26:52.302Z,51
2015-05-05T03:27:10.743Z,53
2015-05-05T03:27:56.571Z,61
2015-05-05T03:28:15.151Z,64
2015-05-05T03:28:33.838Z,68
2015-05-05T03:28:52.401Z,71
2015-05-05T03:29:11.059Z,75
2015-05-05T03:29:29.512Z,79
2015-05-05T03:29:48.168Z,84
2015-05-05T03:30:06.590Z,88
2015-05-05T03:30:25.140Z,93
2015-05-05T03:30:43.750Z,98
2015-05-05T03:31:02.140Z,102
2015-05-05T03:31:20.673Z,107
2015-05-05T03:31:39.111Z,112
2015-05-05T03:31:57.564Z,118
2015-05-05T03:32:15.986Z,124
2015-05-05T03:32:34.411Z,129
2015-05-05T03:32:52.786Z,135
2015-05-05T03:33:11.176Z,141
2015-05-05T03:33:29.616Z,146
2015-05-05T03:33:48.007Z,152
2015-05-05T03:34:06.522Z,157
2015-05-05T03:34:25.022Z,163
2015-05-05T03:34:43.494Z,169
2015-05-05T03:35:01.900Z,174
2015-05-05T03:35:20.525Z,180
2015-05-05T03:35:39.168Z,185
2015-05-05T03:35:57.558Z,190
2015-05-05T03:36:16.371Z,195
2015-05-05T03:36:34.840Z,200
2015-05-05T03:36:53.233Z,205
2015-05-05T03:37:11.702Z,209
2015-05-05T03:37:30.171Z,213
2015-05-05T03:37:48.580Z,217
2015-05-05T03:38:07.080Z,220
2015-05-05T03:38:25.502Z,223
2015-05-05T03:38:44.002Z,227
2015-05-05T03:39:02.597Z,230
2015-05-05T03:39:21.097Z,233
2015-05-05T03:39:39.503Z,236
2015-05-05T03:39:57.991Z,239
2015-05-05T03:40:16.601Z,241
2015-05-05T03:40:34.976Z,245
2015-05-05T03:40:53.382Z,248
2015-05-05T03:41:11.978Z,252
2015-05-05T03:41:30.478Z,257
2015-05-05T03:41:49.118Z,262
2015-05-05T03:42:07.714Z,267
2015-05-05T03:42:26.105Z,273
2015-05-05T03:42:44.495Z,278
2015-05-05T03:43:03.058Z,285
2015-05-05T03:43:21.451Z,291
2015-05-05T03:43:40.061Z,297
2015-05-05T03:43:58.451Z,303
2015-05-05T03:44:16.860Z,309
2015-05-05T03:44:35.360Z,315
2015-05-05T03:44:53.969Z,320
2015-05-05T03:45:12.360Z,324
2015-05-05T03:45:30.910Z,328
2015-05-05T03:45:49.472Z,331
2015-05-05T03:46:07.925Z,334
2015-05-05T03:46:26.380Z,336
2015-05-05T03:46:44.958Z,339
2015-05-05T03:47:03.380Z,341
2015-05-05T03:47:22.037Z,344
2015-05-05T03:47:40.540Z,347
2015-05-05T03:47:59.055Z,350
2015-05-05T03:48:17.461Z,354
2015-05-05T03:48:36.151Z,357
2015-05-05T03:48:54.588Z,362
2015-05-05T03:49:13.385Z,366
2015-05-05T03:49:31.260Z,371
2015-05-05T03:49:49.841Z,375
2015-05-05T03:50:08.435Z,380
2015-05-05T03:50:27.013Z,384
2015-05-05T03:50:45.515Z,388
2015-05-05T03:51:04.125Z,392
2015-05-05T03:51:22.656Z,395
2015-05-05T03:51:40.468Z,398
2015-05-05T03:51:58.909Z,401
2015-05-05T03:52:17.440Z,403
2015-05-05T03:52:36.096Z,406
2015-05-05T03:52:54.505Z,407
2015-05-05T03:53:13.083Z,409
2015-05-05T03:53:31.677Z,411
2015-05-05T03:53:50.114Z,412
2015-05-05T03:54:08.569Z,414
2015-05-05T03:54:27.054Z,416
2015-05-05T03:54:45.600Z,419
2015-05-05T03:55:04.135Z,423
2015-05-05T03:55:22.697Z,428
2015-05-05T03:55:41.135Z,434
2015-05-05T03:55:59.713Z,442
2015-05-05T03:56:18.293Z,450
2015-05-05T03:56:36.715Z,459
2015-05-05T03:56:55.215Z,467
2015-05-05T03:57:13.608Z,476
2015-05-05T03:57:32.202Z,484
2015-05-05T03:57:50.640Z,492
2015-05-05T03:58:09.140Z,499
2015-05-05T03:58:27.783Z,506
2015-05-05T03:58:46.190Z,512
2015-05-05T03:59:04.846Z,518
2015-05-05T03:59:23.332Z,524
2015-05-05T03:59:41.738Z,529
2015-05-05T04:00:00.223Z,533
2015-05-05T04:00:19.020Z,537
2015-05-05T04:00:37.413Z,541
2015-05-05T04:00:55.913Z,545
2015-05-05T04:01:14.320Z,548
2015-05-05T04:01:33.025Z,551
2015-05-05T04:01:51.634Z,554
2015-05-05T04:02:10.197Z,557
2015-05-05T04:02:28.603Z,559
2015-05-05T04:02:47.184Z,562
2015-05-05T04:03:06.043Z,564
2015-05-05T04:03:24.528Z,566
2015-05-05T04:03:42.952Z,569
2015-05-05T04:04:01.530Z,572
2015-05-05T04:04:20.170Z,574
2015-05-05T04:04:38.561Z,577
2015-05-05T04:04:57.126Z,580
2015-05-05T04:05:15.580Z,583
2015-05-05T04:05:34.220Z,587
2015-05-05T04:05:52.910Z,590
2015-05-05T04:06:11.394Z,592
2015-05-05T04:06:29.863Z,595
2015-05-05T04:06:48.550Z,598
2015-05-05T04:07:06.943Z,600
2015-05-05T04:07:25.755Z,601
2015-05-05T04:07:44.146Z,602
2015-05-05T04:08:02.587Z,603
2015-05-05T04:08:21.149Z,603
2015-05-05T04:08:39.790Z,604
2015-05-05T04:08:58.430Z,604
2015-05-05T04:09:16.823Z,605
2015-05-05T04:09:35.229Z,606
2015-05-05T04:09:53.635Z,608
2015-05-05T04:10:12.029Z,610
2015-05-05T04:10:30.545Z,613
2015-05-05T04:10:48.935Z,616
2015-05-05T04:11:07.373Z,620
2015-05-05T04:11:25.829Z,625
2015-05-05T04:11:44.641Z,631
2015-05-05T04:12:03.173Z,637
2015-05-05T04:12:21.659Z,644
2015-05-05T04:12:40.378Z,651
2015-05-05T04:12:58.909Z,659
2015-05-05T04:13:17.565Z,668
2015-05-05T04:13:36.114Z,678
2015-05-05T04:13:54.083Z,687
2015-05-05T04:14:12.849Z,698
2015-05-05T04:14:31.695Z,708
2015-05-05T04:14:50.227Z,719
2015-05-05T04:15:08.055Z,727
2015-05-05T04:15:26.447Z,735
2015-05-05T04:15:45.150Z,742
2015-05-05T04:16:03.635Z,748
2015-05-05T04:16:22.322Z,752
2015-05-05T04:16:40.825Z,757
2015-05-05T04:16:59.653Z,762
2015-05-05T04:17:18.122Z,766
2015-05-05T04:17:36.687Z,766
2015-05-05T04:17:55.312Z,766
2015-05-05T04:18:13.905Z,766
2015-05-05T04:18:32.502Z,766
2015-05-05T04:18:50.924Z,766
2015-05-05T04:19:09.315Z,766
2015-05-05T04:19:28.002Z,766
2015-05-05T04:19:46.519Z,766
2015-05-05T04:20:04.988Z,766
2015-05-05T04:20:23.488Z,766
2015-05-05T04:20:41.897Z,767
2015-05-05T04:21:00.350Z,765
2015-05-05T04:21:18.741Z,762
2015-05-05T04:21:37.211Z,759
2015-05-05T04:21:55.789Z,756
2015-05-05T04:22:14.399Z,752
2015-05-05T04:22:33.024Z,749
2015-05-05T04:22:51.574Z,745
2015-05-05T04:23:10.308Z,741
2015-05-05T04:23:28.808Z,737
2015-05-05T04:23:47.201Z,734
2015-05-05T04:24:06.013Z,730
2015-05-05T04:24:24.685Z,727
2015-05-05T04:24:43.234Z,725
2015-05-05T04:25:01.921Z,723
2015-05-05T04:25:20.390Z,723
2015-05-05T04:25:39.315Z,723
2015-05-05T04:25:58.206Z,724
2015-05-05T04:26:16.831Z,726
2015-05-05T04:26:35.440Z,728
2015-05-05T04:26:54.067Z,729
2015-05-05T04:27:12.676Z,730
2015-05-05T04:27:31.364Z,730
2015-05-05T04:27:49.897Z,729
2015-05-05T04:28:08.335Z,727
2015-05-05T04:28:26.835Z,725
2015-05-05T04:28:45.244Z,722
2015-05-05T04:29:03.853Z,719
2015-05-05T04:29:22.494Z,716
2015-05-05T04:29:41.244Z,713
2015-05-05T04:29:59.933Z,712